Corinth, MS

1:04 PM CDT on August 28, 2015 (GMT -0500)
Turner | | Change Station
CLOSE
Current Station
Airport
Location: Corinth,
Elevation: 427 ft
Nearby Weather Stations

Elev 427 ft 34.91 °N, 88.60 °W | Updated 9 minutes ago

Scattered Clouds
Scattered Clouds
84 °F
Feels Like 87 °F
N
7
Wind Variable Wind from Variable

Today
High -- | Low -- °F
--% Chance of Precip.
Yesterday
High -- | Low -- °F
Precip. -- in
6:24 AM 7:26 PM
Waxing Gibbous, 98% visible
Pressure 30.07 in
Visibility 10.0 miles
Clouds Scattered Clouds 3700 ft
Scattered Clouds 5500 ft
Scattered Clouds 7000 ft
Heat Index 87 °F
Dew Point 66 °F
Humidity 55%
Rainfall 0.00 in
Snow Depth Not available.
UV 8 out of 12
Pollen 8.30 out of 12
Air Quality Not available.
Flu Activity Not available.
METAR KCRX 281755Z AUTO VRB06KT 10SM SCT037 SCT055 SCT070 29/19 A3007 RMK AO2
Pressure 30.07 in
Visibility 10.0 miles
Clouds Scattered Clouds 3700 ft
Scattered Clouds 5500 ft
Scattered Clouds 7000 ft
Heat Index 87 °F
Dew Point 66 °F
Humidity 55%
Rainfall 0.00 in
Snow Depth Not available.
UV 8 out of 12
Pollen 8.30 out of 12
Air Quality Not available.
Flu Activity Not available.
METAR KCRX 281755Z AUTO VRB06KT 10SM SCT037 SCT055 SCT070 29/19 A3007 RMK AO2

10-Day Weather Forecast

×

Almanac

Astronomy

Aug. 28, 2015 Rise Set
Actual Time
Civil Twilight
Nautical Twilight
Astronomical Twilight
Moon
Length of Visible Light
Length of Day
Tomorrow will be .
, % of the Moon is Illuminated

Today's Extremes

State Highs State Lows

Community

WunderPhotos

Upload Photos

1,850,447 photos uploaded!

WunderBlogs® & News

Nearby

Air Quality

  Air Quality AQ Index Pollutant
Not available.

Snow Depth

Station Depth Elevation

Earthquake Activity

City Distance Mag. Time & Date
Minimum magnitude displayed is 2.5.

Coastal Water Temperatures

Place Temperature

Stations

Nearby Weather Stations

Station Location Temp. Windchill Dew Point Humidity Wind Precip. Elev Updated Type